Weather at Wolf River Airport

Public forecast

Using degrees Fahrenheit for public forecast. Weather courtesy of forecast.io.

Closest aviation weather report (METAR) to Wolf River Airport

Closest report is Olive Branch Airport, 11.1 nm (20.6 km) WSW.

2023/01/28 12:50 (retrieved 42 minutes ago)

KOLV 281250Z 16006KT 10SM SCT023 03/M02 A3025

Closest aviation forecast (TAF) to Wolf River Airport

Closest forecast is Memphis International Airport, 19.5 nm (36.1 km) W.

2023/01/28 12:46 (retrieved 46 minutes ago)

TAF KMEM 281143Z 2812/2918 19008KT P6SM SCT070 FM281700 19013G21KT P6SM BKN050 BKN150 FM282100 19013G23KT P6SM VCSH BKN050 OVC120 FM290100 19012KT 6SM -SHRA BKN040 OVC120 FM290700 19015G25KT 5SM SHRA BKN025 FM290900 19015G22KT 2SM -TSRA BKN009CB